Gwyme, Virginia
Current Conditions -  °F | °C
As of 9:35 PM on Wednesday 26 Nov 2014 (Local Time) from KW75 Reporting Station
Overcast Overcast  
Wind Chill: -1°   Ceiling: 900
Heat Index:   Visibility: 10mi
Dew Point:   Wind: 13mph
Humidity: 89%   Direction: 300°WNW
Pressure: 29.99"   Gusts: 17mph
Location:  37.4982°N, 76.2873°W
Report Text: KW75 270235Z AUTO 30011G15KT 10SM BKN009 OVC013 04/02 A2999 RMK AO1 T00360020
Loading
Personal Weather Stations






























Interactive Weather Map New forecast layout! Learn more

10-Day Weather Forecast

Advertisements
Track Severe Weather on mobile